Time;durP1;ratioP1;P1;durP2;ratioP2;P2;SDS_P1;SDS_P2;PMS_P1;PMS_P2;Temp;Humidity;BMP_temperature;BMP_pressure;BME280_temperature;BME280_humidity;BME280_pressure;Samples;Min_cycle;Max_cycle;Signal;HPM_P1;HPM_P2
2023/08/04 00:00:36;;;;;;;8.05;2.90;;;15.60;1.00;;;;;;5008202;28;20204;-68
2023/08/04 00:03:03;;;;;;;12.32;2.70;;;15.60;1.00;;;;;;4986148;28;20633;-68
2023/08/04 00:05:30;;;;;;;4.38;2.60;;;15.60;1.00;;;;;;5004889;28;20201;-67
2023/08/04 00:07:57;;;;;;;7.47;2.42;;;15.60;1.00;;;;;;5008233;28;20228;-67
2023/08/04 00:10:24;;;;;;;8.75;3.00;;;15.60;1.00;;;;;;5007772;28;20660;-68
2023/08/04 00:12:51;;;;;;;5.75;2.88;;;15.60;1.00;;;;;;4990631;28;20564;-68
2023/08/04 00:15:18;;;;;;;7.38;2.53;;;15.60;1.00;;;;;;5005149;28;20312;-68
2023/08/04 00:17:45;;;;;;;7.40;2.28;;;15.60;1.00;;;;;;5002828;28;20223;-67
2023/08/04 00:20:12;;;;;;;7.28;2.58;;;15.70;1.00;;;;;;5005432;28;20192;-68
2023/08/04 00:22:39;;;;;;;10.32;2.53;;;15.60;1.00;;;;;;4972494;28;20193;-66
2023/08/04 00:25:07;;;;;;;7.65;2.60;;;15.50;1.00;;;;;;5005321;28;20605;-67
2023/08/04 00:27:34;;;;;;;9.95;3.58;;;15.40;1.00;;;;;;5008709;28;20204;-66
2023/08/04 00:30:02;;;;;;;5.00;2.78;;;15.40;1.00;;;;;;4966540;28;20211;-64
2023/08/04 00:32:29;;;;;;;5.53;2.85;;;15.30;1.00;;;;;;4985709;28;20214;-67
2023/08/04 00:34:56;;;;;;;9.25;3.42;;;15.30;1.00;;;;;;4986384;28;20221;-67
2023/08/04 00:37:23;;;;;;;6.97;2.72;;;15.20;1.00;;;;;;5003690;28;20196;-67
2023/08/04 00:39:50;;;;;;;7.05;2.92;;;15.20;1.00;;;;;;4987824;28;20232;-67
2023/08/04 00:42:18;;;;;;;7.75;2.70;;;15.20;1.00;;;;;;4996157;28;20280;-67
2023/08/04 00:44:45;;;;;;;5.25;3.03;;;15.20;1.00;;;;;;4970859;28;20201;-68
2023/08/04 00:47:12;;;;;;;6.60;3.20;;;15.30;1.00;;;;;;4989671;28;20236;-67
2023/08/04 00:49:40;;;;;;;8.43;3.17;;;15.30;1.00;;;;;;5009663;28;20224;-68
2023/08/04 00:52:08;;;;;;;8.52;3.03;;;15.30;1.00;;;;;;4972282;28;20200;-66
2023/08/04 00:54:36;;;;;;;5.18;2.83;;;15.30;1.00;;;;;;5006710;28;20205;-67
2023/08/04 00:57:05;;;;;;;7.97;3.10;;;15.40;1.00;;;;;;4983616;28;20224;-67
2023/08/04 00:59:32;;;;;;;10.15;2.85;;;15.40;1.00;;;;;;5004499;28;20227;-67
2023/08/04 01:01:59;;;;;;;8.00;3.20;;;15.50;1.00;;;;;;5021330;23;20243;-66
2023/08/04 01:04:27;;;;;;;5.47;3.20;;;15.50;1.00;;;;;;4985099;28;20197;-65
2023/08/04 01:07:23;;;;;;;4.97;3.03;;;15.60;1.00;;;;;;5002688;28;20189;-66
2023/08/04 01:10:23;;;;;;;10.23;2.85;;;15.50;1.00;;;;;;4971303;28;20217;-67
2023/08/04 01:13:07;;;;;;;4.75;2.40;;;15.60;1.00;;;;;;4986731;28;20200;-66
2023/08/04 01:15:35;;;;;;;5.32;2.92;;;15.60;1.00;;;;;;4996275;28;20216;-68
2023/08/04 01:18:02;;;;;;;5.45;2.78;;;15.60;1.00;;;;;;5007832;28;20220;-66
2023/08/04 01:20:30;;;;;;;3.97;3.08;;;15.60;1.00;;;;;;5021186;28;20652;-66
2023/08/04 01:22:57;;;;;;;6.13;3.40;;;15.60;1.00;;;;;;5022849;28;20188;-66
2023/08/04 01:25:32;;;;;;;8.02;3.88;;;15.60;1.00;;;;;;5007341;28;20200;-66
2023/08/04 01:28:03;;;;;;;6.25;3.03;;;15.60;1.00;;;;;;5021306;28;20195;-67
2023/08/04 01:30:32;;;;;;;6.38;3.10;;;15.50;1.00;;;;;;5018616;28;20414;-66
2023/08/04 01:32:59;;;;;;;4.60;2.97;;;15.50;1.00;;;;;;5006051;28;20200;-66
2023/08/04 01:35:28;;;;;;;5.22;3.28;;;15.60;1.00;;;;;;5017995;28;20220;-66
2023/08/04 01:37:55;;;;;;;7.15;3.78;;;15.60;1.00;;;;;;5022145;28;20192;-66
2023/08/04 01:40:22;;;;;;;9.05;5.30;;;15.60;1.00;;;;;;5006370;28;20188;-66
2023/08/04 01:42:49;;;;;;;8.80;4.63;;;15.50;1.00;;;;;;5005400;28;20219;-66
2023/08/04 01:45:16;;;;;;;9.38;5.05;;;15.60;1.00;;;;;;5004468;28;20265;-67
2023/08/04 01:47:45;;;;;;;7.68;4.10;;;15.60;1.00;;;;;;5004904;28;20302;-67
2023/08/04 01:50:12;;;;;;;9.55;4.53;;;15.60;1.00;;;;;;5005676;28;20737;-64
2023/08/04 01:52:40;;;;;;;6.53;4.28;;;15.60;1.00;;;;;;5005506;28;20541;-62
2023/08/04 01:55:07;;;;;;;12.35;4.95;;;15.60;1.00;;;;;;4990489;28;20227;-63
2023/08/04 01:57:34;;;;;;;15.05;5.05;;;15.60;1.00;;;;;;5022481;28;20192;-63
2023/08/04 02:00:01;;;;;;;8.63;4.10;;;15.60;1.00;;;;;;5021846;28;20239;-63
